createdAt,value
2022-12-18T00:01:29.738Z,102773.50
2022-12-18T00:03:59.764Z,102766.47
2022-12-18T00:06:29.517Z,102777.03
2022-12-18T00:08:58.264Z,102781.41
2022-12-18T00:11:27.994Z,102791.97
2022-12-18T00:13:57.876Z,102792.84
2022-12-18T00:16:28.069Z,102793.75
2022-12-18T00:18:58.880Z,102799.97
2022-12-18T00:21:27.788Z,102818.44
2022-12-18T00:23:55.740Z,102817.59
2022-12-18T00:26:25.327Z,102820.25
2022-12-18T00:28:53.424Z,102813.22
2022-12-18T00:31:23.706Z,102810.59
2022-12-18T00:33:53.884Z,102807.13
2022-12-18T00:36:26.583Z,102800.84
2022-12-18T00:38:55.666Z,102794.63
2022-12-18T00:41:37.746Z,102793.78
2022-12-18T00:44:07.076Z,102796.47
2022-12-18T00:46:35.274Z,102795.56
2022-12-18T00:49:03.490Z,102800.81
2022-12-18T00:51:32.905Z,102804.28
2022-12-18T00:54:00.867Z,102818.34
2022-12-18T00:56:28.840Z,102817.44
2022-12-18T00:58:56.724Z,102809.53
2022-12-18T01:01:24.817Z,102803.31
2022-12-18T01:03:52.792Z,102800.69
2022-12-18T01:06:20.953Z,102803.31
2022-12-18T01:08:50.484Z,102803.25
2022-12-18T01:11:19.843Z,102802.50
2022-12-18T01:13:48.317Z,102801.50
2022-12-18T01:16:17.556Z,102801.53
2022-12-18T01:18:45.852Z,102800.63
2022-12-18T01:21:16.220Z,102798.84
2022-12-18T01:23:44.239Z,102794.44
2022-12-18T01:26:15.478Z,102797.06
2022-12-18T01:28:44.720Z,102796.22
2022-12-18T01:31:18.151Z,102793.56
2022-12-18T01:33:46.315Z,102795.31
2022-12-18T01:36:18.366Z,102798.91
2022-12-18T01:38:47.612Z,102798.06
2022-12-18T01:41:17.879Z,102802.50
2022-12-18T01:43:48.261Z,102809.50
2022-12-18T01:46:16.537Z,102808.47
2022-12-18T01:48:45.280Z,102815.53
2022-12-18T01:51:14.003Z,102819.94
2022-12-18T01:53:43.982Z,102830.56
2022-12-18T01:56:16.637Z,102818.16
2022-12-18T01:58:52.713Z,102826.06
2022-12-18T02:01:20.786Z,102826.09
2022-12-18T02:03:48.703Z,102829.59
2022-12-18T02:06:19.109Z,102838.44
2022-12-18T02:08:52.772Z,102832.31
2022-12-18T02:11:26.976Z,102842.81
2022-12-18T02:13:58.813Z,102838.41
2022-12-18T02:16:32.726Z,102840.13
2022-12-18T02:19:03.405Z,102839.22
2022-12-18T02:21:36.579Z,102837.53
2022-12-18T02:24:16.037Z,102837.53
2022-12-18T02:26:48.037Z,102846.34
2022-12-18T02:29:19.041Z,102834.94
2022-12-18T02:31:54.020Z,102827.09
2022-12-18T02:34:25.598Z,102833.06
2022-12-18T02:36:55.716Z,102829.63
2022-12-18T02:39:24.572Z,102829.53
2022-12-18T02:41:54.225Z,102827.84
2022-12-18T02:44:22.188Z,102825.06
2022-12-18T02:46:53.128Z,102834.63
2022-12-18T02:49:29.336Z,102838.19
2022-12-18T02:52:04.217Z,102840.81
2022-12-18T02:54:40.329Z,102837.22
2022-12-18T02:57:16.152Z,102833.59
2022-12-18T02:59:52.221Z,102826.56
2022-12-18T03:02:24.644Z,102825.69
2022-12-18T03:04:57.482Z,102841.53
2022-12-18T03:07:42.761Z,102835.38
2022-12-18T03:10:14.602Z,102850.38
2022-12-18T03:12:46.806Z,102847.72
2022-12-18T03:15:18.943Z,102845.00
2022-12-18T03:17:49.318Z,102850.13
2022-12-18T03:20:21.208Z,102840.41
2022-12-18T03:22:53.329Z,102839.53
2022-12-18T03:25:21.956Z,102845.88
2022-12-18T03:27:53.722Z,102846.53
2022-12-18T03:30:21.658Z,102837.84
2022-12-18T03:32:55.454Z,102845.69
2022-12-18T03:35:30.047Z,102866.63
2022-12-18T03:37:58.009Z,102876.28
2022-12-18T03:40:30.481Z,102866.53
2022-12-18T03:43:04.424Z,102866.38
2022-12-18T03:45:36.912Z,102862.00
2022-12-18T03:48:07.308Z,102855.84
2022-12-18T03:50:40.593Z,102874.50
2022-12-18T03:53:16.620Z,102867.28
2022-12-18T03:55:45.892Z,102865.59
2022-12-18T03:58:15.884Z,102866.38
2022-12-18T04:00:44.436Z,102866.31
2022-12-18T04:03:13.339Z,102868.91
2022-12-18T04:05:41.752Z,102867.09
2022-12-18T04:08:10.104Z,102862.63
2022-12-18T04:10:38.176Z,102867.91
2022-12-18T04:13:06.351Z,102858.16
2022-12-18T04:15:37.081Z,102852.06
2022-12-18T04:18:05.723Z,102855.72
2022-12-18T04:20:33.977Z,102853.03
2022-12-18T04:23:01.893Z,102850.34
2022-12-18T04:25:29.771Z,102855.72
2022-12-18T04:27:57.742Z,102847.88
2022-12-18T04:30:25.680Z,102846.91
2022-12-18T04:32:55.072Z,102849.56
2022-12-18T04:35:23.067Z,102854.00
2022-12-18T04:37:51.192Z,102853.88
2022-12-18T04:40:19.320Z,102849.81
2022-12-18T04:42:47.356Z,102841.66
2022-12-18T04:45:15.456Z,102841.03
2022-12-18T04:47:43.514Z,102838.22
2022-12-18T04:50:12.945Z,102840.13
2022-12-18T04:52:41.072Z,102837.31
2022-12-18T04:55:09.564Z,102826.78
2022-12-18T04:57:37.518Z,102828.53
2022-12-18T05:00:07.075Z,102826.94
2022-12-18T05:02:35.315Z,102841.69
2022-12-18T05:05:03.304Z,102848.81
2022-12-18T05:07:32.766Z,102862.84
2022-12-18T05:10:00.691Z,102868.13
2022-12-18T05:12:28.644Z,102872.50
2022-12-18T05:14:56.561Z,102869.88
2022-12-18T05:17:24.538Z,102863.81
2022-12-18T05:19:52.504Z,102863.75
2022-12-18T05:22:20.588Z,102870.75
2022-12-18T05:24:49.928Z,102877.75
2022-12-18T05:27:18.741Z,102879.56
2022-12-18T05:29:46.739Z,102881.31
2022-12-18T05:32:14.664Z,102884.78
2022-12-18T05:34:42.634Z,102882.09
2022-12-18T05:37:10.511Z,102893.53
2022-12-18T05:39:38.495Z,102899.63
2022-12-18T05:42:07.785Z,102910.25
2022-12-18T05:44:35.688Z,102910.34
2022-12-18T05:47:03.686Z,102918.09
2022-12-18T05:49:31.700Z,102922.41
2022-12-18T05:51:59.596Z,102917.06
2022-12-18T05:54:29.284Z,102911.00
2022-12-18T05:56:57.235Z,102907.31
2022-12-18T05:59:26.931Z,102896.88
2022-12-18T06:01:54.893Z,102890.63
2022-12-18T06:04:22.831Z,102899.63
2022-12-18T06:06:50.880Z,102903.13
2022-12-18T06:09:18.796Z,102896.09
2022-12-18T06:11:46.734Z,102900.19
2022-12-18T06:14:14.753Z,102905.69
2022-12-18T06:16:44.101Z,102900.72
2022-12-18T06:19:16.569Z,102907.53
2022-12-18T06:21:44.927Z,102908.22
2022-12-18T06:24:12.960Z,102903.78
2022-12-18T06:26:41.248Z,102908.22
2022-12-18T06:29:09.313Z,102905.81
2022-12-18T06:31:37.353Z,102907.38
2022-12-18T06:34:07.209Z,102916.22
2022-12-18T06:36:35.151Z,102911.13
2022-12-18T06:39:03.212Z,102908.63
2022-12-18T06:41:31.186Z,102911.34
2022-12-18T06:44:00.304Z,102901.44
2022-12-18T06:46:28.578Z,102899.81
2022-12-18T06:48:56.526Z,102904.94
2022-12-18T06:51:26.753Z,102903.22
2022-12-18T06:53:54.790Z,102910.25
2022-12-18T06:56:22.806Z,102917.19
2022-12-18T06:58:50.753Z,102914.63
2022-12-18T07:01:18.731Z,102920.84
2022-12-18T07:03:46.843Z,102926.00
2022-12-18T07:06:22.241Z,102925.13
2022-12-18T07:08:52.308Z,102928.53
2022-12-18T07:11:21.032Z,102927.69
2022-12-18T07:13:49.307Z,102930.25
2022-12-18T07:16:24.737Z,102933.91
2022-12-18T07:18:53.495Z,102932.22
2022-12-18T07:21:22.169Z,102925.13
2022-12-18T07:23:51.677Z,102931.34
2022-12-18T07:26:21.613Z,102932.31
2022-12-18T07:28:49.744Z,102931.44
2022-12-18T07:31:19.076Z,102935.84
2022-12-18T07:33:47.925Z,102941.94
2022-12-18T07:36:16.017Z,102944.56
2022-12-18T07:38:44.259Z,102947.19
2022-12-18T07:41:15.312Z,102944.69
2022-12-18T07:43:44.426Z,102943.91
2022-12-18T07:46:14.722Z,102945.63
2022-12-18T07:48:43.448Z,102941.16
2022-12-18T07:51:13.724Z,102943.97
2022-12-18T07:53:42.358Z,102939.47
2022-12-18T07:56:27.152Z,102936.88
2022-12-18T07:58:57.526Z,102941.22
2022-12-18T08:01:25.955Z,102935.09
2022-12-18T08:03:54.111Z,102932.50
2022-12-18T08:06:23.941Z,102915.84
2022-12-18T08:08:53.646Z,102919.44
2022-12-18T08:11:21.826Z,102930.09
2022-12-18T08:13:49.856Z,102927.47
2022-12-18T08:16:19.781Z,102927.63
2022-12-18T08:18:48.604Z,102929.34
2022-12-18T08:21:19.134Z,102927.66
2022-12-18T08:23:49.839Z,102929.47
2022-12-18T08:26:19.838Z,102930.38
2022-12-18T08:28:49.124Z,102935.66
2022-12-18T08:31:20.024Z,102923.41
2022-12-18T08:33:50.740Z,102928.69
2022-12-18T08:36:18.676Z,102930.53
2022-12-18T08:38:46.567Z,102932.31
2022-12-18T08:41:16.626Z,102928.03
2022-12-18T08:44:01.628Z,102931.63
2022-12-18T08:46:35.357Z,102934.34
2022-12-18T08:49:03.547Z,102943.22
2022-12-18T08:51:31.905Z,102947.59
2022-12-18T08:53:59.965Z,102937.16
2022-12-18T08:56:28.031Z,102929.22
2022-12-18T08:58:56.476Z,102940.75
2022-12-18T09:01:25.308Z,102945.19
2022-12-18T09:03:54.693Z,102945.31
2022-12-18T09:06:24.037Z,102949.78
2022-12-18T09:08:52.181Z,102932.22
2022-12-18T09:11:23.134Z,102942.91
2022-12-18T09:13:51.431Z,102930.66
2022-12-18T09:16:19.463Z,102924.59
2022-12-18T09:18:47.434Z,102927.28
2022-12-18T09:21:18.425Z,102934.34
2022-12-18T09:23:46.711Z,102927.38
2022-12-18T09:26:14.674Z,102939.88
2022-12-18T09:28:43.019Z,102933.78
2022-12-18T09:31:13.368Z,102927.63
2022-12-18T09:33:41.633Z,102923.19
2022-12-18T09:36:12.205Z,102921.50
2022-12-18T09:38:41.947Z,102931.22
2022-12-18T09:41:22.777Z,102919.81
2022-12-18T09:43:53.169Z,102929.53
2022-12-18T09:46:27.764Z,102921.66
2022-12-18T09:48:58.313Z,102922.56
2022-12-18T09:51:28.609Z,102925.31
2022-12-18T09:54:00.132Z,102928.00
2022-12-18T09:56:31.088Z,102923.59
2022-12-18T09:59:01.132Z,102929.84
2022-12-18T10:01:38.831Z,102929.03
2022-12-18T10:04:11.816Z,102927.28
2022-12-18T10:06:45.468Z,102929.03
2022-12-18T10:09:21.667Z,102933.50
2022-12-18T10:11:55.596Z,102928.16
2022-12-18T10:14:30.013Z,102931.81
2022-12-18T10:17:02.889Z,102925.66
2022-12-18T10:19:39.182Z,102942.44
2022-12-18T10:22:14.204Z,102945.94
2022-12-18T10:24:48.084Z,102946.03
2022-12-18T10:27:17.856Z,102944.28
2022-12-18T10:29:46.423Z,102936.34
2022-12-18T10:32:17.118Z,102942.53
2022-12-18T10:34:48.520Z,102925.75
2022-12-18T10:37:20.488Z,102917.81
2022-12-18T10:40:08.854Z,102919.59
2022-12-18T10:42:36.949Z,102926.66
2022-12-18T10:45:10.333Z,102910.75
2022-12-18T10:47:38.375Z,102908.97
2022-12-18T10:50:06.808Z,102910.75
2022-12-18T10:52:34.885Z,102905.44
2022-12-18T10:55:06.273Z,102912.53
2022-12-18T10:57:37.092Z,102914.28
2022-12-18T11:00:26.812Z,102908.13
2022-12-18T11:02:55.324Z,102909.88
2022-12-18T11:05:29.728Z,102903.69
2022-12-18T11:07:58.387Z,102893.06
2022-12-18T11:10:32.988Z,102903.69
2022-12-18T11:13:14.770Z,102898.38
2022-12-18T11:15:43.034Z,102894.81
2022-12-18T11:18:19.579Z,102890.41
2022-12-18T11:20:56.975Z,102866.50
2022-12-18T11:23:26.820Z,102875.38
2022-12-18T11:26:02.665Z,102872.75
2022-12-18T11:28:38.132Z,102875.38
2022-12-18T11:31:23.342Z,102895.72
2022-12-18T11:34:27.945Z,102891.28
2022-12-18T11:36:50.549Z,102884.19
2022-12-18T11:39:20.564Z,102885.91
2022-12-18T11:42:13.295Z,102869.13
2022-12-18T11:44:47.265Z,102868.19
2022-12-18T11:47:20.930Z,102859.41
2022-12-18T11:49:51.806Z,102850.50
2022-12-18T11:52:23.309Z,102840.78
2022-12-18T11:54:54.082Z,102837.19
2022-12-18T11:57:35.120Z,102840.69
2022-12-18T12:00:06.795Z,102841.53
2022-12-18T12:02:50.331Z,102837.13
2022-12-18T12:05:27.064Z,102830.03
2022-12-18T12:07:57.676Z,102824.75
2022-12-18T12:10:34.638Z,102822.09
2022-12-18T12:13:15.069Z,102818.59
2022-12-18T12:15:50.577Z,102823.06
2022-12-18T12:18:28.144Z,102811.59
2022-12-18T12:21:01.190Z,102808.03
2022-12-18T12:23:34.811Z,102790.31
2022-12-18T12:26:06.313Z,102790.34
2022-12-18T12:29:19.390Z,102770.00
2022-12-18T12:31:59.732Z,102769.88
2022-12-18T12:34:31.468Z,102769.94
2022-12-18T12:37:11.378Z,102768.19
2022-12-18T12:39:40.654Z,102776.94
2022-12-18T12:42:32.178Z,102769.84
2022-12-18T12:45:03.444Z,102770.69
2022-12-18T12:47:35.037Z,102759.19
2022-12-18T12:50:08.019Z,102751.13
2022-12-18T12:52:38.950Z,102752.88
2022-12-18T12:55:14.911Z,102757.28
2022-12-18T12:57:47.607Z,102756.28
2022-12-18T13:00:20.200Z,102761.59
2022-12-18T13:02:54.144Z,102763.38
2022-12-18T13:05:26.844Z,102760.72
2022-12-18T13:07:58.588Z,102759.88
2022-12-18T13:10:32.970Z,102747.50
2022-12-18T13:13:02.013Z,102734.13
2022-12-18T13:15:39.797Z,102721.81
2022-12-18T13:18:14.583Z,102729.72
2022-12-18T13:20:46.604Z,102727.09
2022-12-18T13:23:30.598Z,102731.56
2022-12-18T13:25:59.356Z,102736.00
2022-12-18T13:28:55.205Z,102727.09
2022-12-18T13:32:09.136Z,102724.50
2022-12-18T13:34:38.875Z,102719.13
2022-12-18T13:37:43.943Z,102725.38
2022-12-18T13:40:57.582Z,102723.66
2022-12-18T13:43:35.181Z,102721.03
2022-12-18T13:46:08.271Z,102713.09
2022-12-18T13:48:38.525Z,102714.03
2022-12-18T13:51:09.180Z,102716.72
2022-12-18T13:53:41.411Z,102724.56
2022-12-18T13:56:09.746Z,102719.22
2022-12-18T13:58:38.365Z,102721.03
2022-12-18T14:01:06.786Z,102721.97
2022-12-18T14:03:36.004Z,102727.31
2022-12-18T14:06:08.498Z,102722.00
2022-12-18T14:08:40.393Z,102712.31
2022-12-18T14:11:09.461Z,102708.69
2022-12-18T14:13:43.185Z,102700.84
2022-12-18T14:16:16.044Z,102697.28
2022-12-18T14:18:46.675Z,102700.91
2022-12-18T14:21:24.072Z,102694.72
2022-12-18T14:24:05.677Z,102692.06
2022-12-18T14:26:34.511Z,102700.06
2022-12-18T14:29:03.861Z,102705.41
2022-12-18T14:31:33.472Z,102708.06
2022-12-18T14:34:01.381Z,102701.00
2022-12-18T14:36:31.419Z,102689.50
2022-12-18T14:39:00.279Z,102689.47
2022-12-18T14:41:28.860Z,102677.13
2022-12-18T14:43:57.190Z,102669.19
2022-12-18T14:46:31.591Z,102667.44
2022-12-18T14:48:59.758Z,102661.25
2022-12-18T14:51:28.360Z,102663.03
2022-12-18T14:53:58.842Z,102672.78
2022-12-18T14:56:27.942Z,102669.25
2022-12-18T14:58:57.086Z,102668.41
2022-12-18T15:01:28.346Z,102670.19
2022-12-18T15:03:57.240Z,102667.53
2022-12-18T15:06:31.413Z,102668.44
2022-12-18T15:09:01.341Z,102669.31
2022-12-18T15:11:32.776Z,102664.91
2022-12-18T15:14:01.680Z,102663.13
2022-12-18T15:16:29.706Z,102659.63
2022-12-18T15:18:57.603Z,102658.75
2022-12-18T15:21:25.847Z,102651.69
2022-12-18T15:23:54.457Z,102645.50
2022-12-18T15:26:24.159Z,102638.41
2022-12-18T15:28:53.270Z,102633.13
2022-12-18T15:31:26.753Z,102634.03
2022-12-18T15:34:15.405Z,102641.09
2022-12-18T15:36:43.315Z,102634.06
2022-12-18T15:39:13.555Z,102637.59
2022-12-18T15:42:02.901Z,102630.50
2022-12-18T15:44:29.809Z,102615.50
2022-12-18T15:46:57.696Z,102622.59
2022-12-18T15:49:25.650Z,102614.59
2022-12-18T15:51:55.083Z,102607.56
2022-12-18T15:54:43.594Z,102609.34
2022-12-18T15:57:24.579Z,102598.72
2022-12-18T15:59:53.708Z,102600.47
2022-12-18T16:02:23.790Z,102603.09
2022-12-18T16:04:53.036Z,102596.03
2022-12-18T16:07:25.616Z,102585.44
2022-12-18T16:09:55.476Z,102595.19
2022-12-18T16:12:26.948Z,102586.34
2022-12-18T16:14:54.869Z,102593.41
2022-12-18T16:17:22.803Z,102590.78
2022-12-18T16:19:50.681Z,102584.59
2022-12-18T16:22:23.036Z,102573.09
2022-12-18T16:24:51.530Z,102566.94
2022-12-18T16:27:19.563Z,102563.38
2022-12-18T16:29:48.875Z,102566.06
2022-12-18T16:32:18.701Z,102557.22
2022-12-18T16:34:46.965Z,102552.78
2022-12-18T16:37:15.971Z,102560.72
2022-12-18T16:39:45.180Z,102561.63
2022-12-18T16:42:17.440Z,102570.47
2022-12-18T16:44:46.072Z,102562.50
2022-12-18T16:47:15.729Z,102570.47
2022-12-18T16:49:45.346Z,102560.78
2022-12-18T16:52:13.563Z,102567.81
2022-12-18T16:54:41.489Z,102561.63
2022-12-18T16:57:11.545Z,102555.47
2022-12-18T16:59:39.485Z,102558.09
2022-12-18T17:02:10.391Z,102555.47
2022-12-18T17:04:39.887Z,102559.84
2022-12-18T17:07:07.767Z,102552.78
2022-12-18T17:09:35.664Z,102533.34
2022-12-18T17:12:04.563Z,102538.66
2022-12-18T17:14:33.823Z,102520.97
2022-12-18T17:19:51.712Z,102513.91
2022-12-18T17:22:19.680Z,102516.56
2022-12-18T17:24:47.941Z,102519.19
2022-12-18T17:27:16.219Z,102513.91
2022-12-18T17:29:48.024Z,102510.38
2022-12-18T17:32:16.798Z,102511.22
2022-12-18T17:34:44.874Z,102520.06
2022-12-18T17:37:14.442Z,102505.06
2022-12-18T17:39:42.348Z,102510.38
2022-12-18T17:42:15.028Z,102494.44
2022-12-18T17:44:43.999Z,102504.19
2022-12-18T17:47:13.195Z,102503.31
2022-12-18T17:49:41.433Z,102491.78
2022-12-18T17:52:09.340Z,102484.75
2022-12-18T17:54:41.506Z,102478.56
2022-12-18T17:57:09.846Z,102473.25
2022-12-18T17:59:37.823Z,102455.53
2022-12-18T18:02:06.007Z,102439.66
2022-12-18T18:04:34.436Z,102441.41
2022-12-18T18:07:02.401Z,102444.06
2022-12-18T18:09:30.368Z,102431.69
2022-12-18T18:12:17.016Z,102430.81
2022-12-18T18:14:45.001Z,102419.38
2022-12-18T18:17:13.071Z,102427.28
2022-12-18T18:19:42.133Z,102423.75
2022-12-18T18:22:12.152Z,102417.56
2022-12-18T18:24:43.459Z,102409.63
2022-12-18T18:27:12.765Z,102404.31
2022-12-18T18:29:41.237Z,102386.66
2022-12-18T18:32:09.243Z,102396.34
2022-12-18T18:34:37.337Z,102391.03
2022-12-18T18:37:05.998Z,102384.81
2022-12-18T18:39:33.939Z,102377.78
2022-12-18T18:42:01.994Z,102381.31
2022-12-18T18:44:31.572Z,102376.88
2022-12-18T18:46:59.949Z,102387.53
2022-12-18T18:49:29.942Z,102377.78
2022-12-18T18:51:59.211Z,102376.00
2022-12-18T18:54:27.310Z,102367.19
2022-12-18T18:57:19.548Z,102352.09
2022-12-18T18:59:44.720Z,102347.75
2022-12-18T19:02:13.953Z,102352.16
2022-12-18T19:04:46.644Z,102355.66
2022-12-18T19:07:25.383Z,102344.16
2022-12-18T19:09:58.042Z,102344.16
2022-12-18T19:12:48.824Z,102336.19
2022-12-18T19:15:18.179Z,102329.16
2022-12-18T19:17:47.397Z,102322.94
2022-12-18T19:20:15.972Z,102324.69
2022-12-18T19:22:44.791Z,102336.22
2022-12-18T19:25:26.804Z,102330.06
2022-12-18T19:27:58.955Z,102315.00
2022-12-18T19:30:28.463Z,102330.88
2022-12-18T19:32:59.421Z,102330.00
2022-12-18T19:35:30.979Z,102315.88
2022-12-18T19:37:59.144Z,102301.72
2022-12-18T19:40:27.240Z,102306.97
2022-12-18T19:42:56.667Z,102299.00
2022-12-18T19:45:24.719Z,102305.22
2022-12-18T19:47:54.111Z,102302.56
2022-12-18T19:50:22.087Z,102291.94
2022-12-18T19:52:50.137Z,102278.66
2022-12-18T19:55:18.503Z,102273.38
2022-12-18T19:57:46.517Z,102267.19
2022-12-18T20:00:18.663Z,102260.03
2022-12-18T20:02:47.103Z,102258.31
2022-12-18T20:05:22.234Z,102254.78
2022-12-18T20:07:50.138Z,102251.22
2022-12-18T20:10:18.322Z,102247.63
2022-12-18T20:12:46.883Z,102236.13
2022-12-18T20:15:14.813Z,102225.53
2022-12-18T20:17:42.799Z,102227.25
2022-12-18T20:20:12.323Z,102228.13
2022-12-18T20:22:42.685Z,102220.16
2022-12-18T20:25:11.028Z,102224.59
2022-12-18T20:27:38.991Z,102225.50
2022-12-18T20:30:08.064Z,102224.56
2022-12-18T20:32:37.596Z,102223.69
2022-12-18T20:35:06.360Z,102223.66
2022-12-18T20:37:34.405Z,102234.31
2022-12-18T20:40:08.111Z,102208.59
2022-12-18T20:42:36.375Z,102223.59
2022-12-18T20:45:04.480Z,102216.56
2022-12-18T20:47:32.364Z,102220.88
2022-12-18T20:50:00.911Z,102218.16
2022-12-18T20:52:28.821Z,102239.28
2022-12-18T20:54:57.050Z,102266.69
2022-12-18T20:57:27.837Z,102261.38
2022-12-18T20:59:55.769Z,102278.16
2022-12-18T21:02:24.018Z,102271.03
2022-12-18T21:04:53.234Z,102269.25
2022-12-18T21:07:21.154Z,102271.00
2022-12-18T21:09:49.048Z,102265.75
2022-12-18T21:12:40.556Z,102261.31
2022-12-18T21:15:17.660Z,102259.56
2022-12-18T21:17:45.565Z,102261.41
2022-12-18T21:20:17.354Z,102265.75
2022-12-18T21:22:46.757Z,102268.41
2022-12-18T21:25:14.773Z,102268.38
2022-12-18T21:27:42.694Z,102256.78
2022-12-18T21:30:11.276Z,102250.56
2022-12-18T21:32:40.719Z,102254.75
2022-12-18T21:35:09.312Z,102246.22
2022-12-18T21:37:37.522Z,102246.88
2022-12-18T21:40:06.313Z,102246.09
2022-12-18T21:42:52.052Z,102242.69
2022-12-18T21:45:22.952Z,102229.13
2022-12-18T21:48:14.957Z,102231.72
2022-12-18T21:50:43.057Z,102216.97
2022-12-18T21:53:20.132Z,102221.44
2022-12-18T21:55:48.177Z,102223.03
2022-12-18T21:58:16.056Z,102211.38
2022-12-18T22:00:48.535Z,102221.25
2022-12-18T22:03:19.347Z,102210.50
2022-12-18T22:05:49.359Z,102194.81
2022-12-18T22:08:31.722Z,102188.34
2022-12-18T22:11:00.246Z,102203.59
2022-12-18T22:13:30.708Z,102189.03
2022-12-18T22:15:58.671Z,102190.91
2022-12-18T22:18:28.128Z,102192.91
2022-12-18T22:21:02.979Z,102184.84
2022-12-18T22:23:54.394Z,102180.56
2022-12-18T22:26:23.273Z,102172.44
2022-12-18T22:29:08.952Z,102168.88
2022-12-18T22:31:37.109Z,102168.06
2022-12-18T22:34:06.999Z,102170.72
2022-12-18T22:36:39.395Z,102162.81
2022-12-18T22:39:09.081Z,102147.72
2022-12-18T22:41:37.065Z,102148.72
2022-12-18T22:44:05.229Z,102137.88
2022-12-18T22:46:38.154Z,102125.41
2022-12-18T22:49:07.818Z,102133.50
2022-12-18T22:51:35.824Z,102125.56
2022-12-18T22:54:03.822Z,102114.75
2022-12-18T22:56:31.780Z,102111.28
2022-12-18T22:58:59.741Z,102106.88
2022-12-18T23:01:29.414Z,102109.31
2022-12-18T23:03:57.762Z,102117.16
2022-12-18T23:06:28.574Z,102103.06
2022-12-18T23:08:57.468Z,102093.47
2022-12-18T23:11:26.456Z,102094.22
2022-12-18T23:13:55.104Z,102096.03
2022-12-18T23:16:25.601Z,102092.56
2022-12-18T23:18:54.921Z,102084.53
2022-12-18T23:21:24.013Z,102086.38
2022-12-18T23:23:53.548Z,102095.22
2022-12-18T23:26:23.333Z,102080.19
2022-12-18T23:28:52.156Z,102075.53
2022-12-18T23:31:23.506Z,102069.47
2022-12-18T23:33:52.562Z,102072.75
2022-12-18T23:36:20.968Z,102063.06
2022-12-18T23:38:50.288Z,102062.94
2022-12-18T23:41:20.920Z,102062.09
2022-12-18T23:43:49.157Z,102056.72
2022-12-18T23:46:20.043Z,102053.31
2022-12-18T23:48:48.133Z,102052.28
2022-12-18T23:51:17.207Z,102039.06
2022-12-18T23:53:45.617Z,102038.19
2022-12-18T23:56:14.636Z,102051.44
2022-12-18T23:58:44.248Z,102041.53
